Paradero — 6YRG6 — position and weather

sailwx.info

Track history (hours):
 
Tides and Currents Weather Stations Pressure Air Temp Water Temp Dewpoint Dewpoint Depression Visibility Wind Speed Wind Dir Waves Ship Positions

Paradero

Last reported at 2017-Sep-21 15:15 UTC. Time now 2017-Nov-24 15:00 UTC.
Position S 03°07' W 059°53'.
Warning: this ship's position is months out of date.

Length 140 m; draft 4.7 m.

Type: Cargo ship. MMSI: 339300320.

Date/timePositionNaut miles runAvg speedWind from/ knotsBaromVisibWave heightAir tempDewpointWater temp
2017-Sep-21 15:15S 03°07' W 059°53'412.0
2017-Sep-21 14:54S 03°09' W 059°57'3 7.6
2017-Sep-21 14:30S 03°10' W 059°60'0 0.5
2017-Sep-21 13:55S 03°09' W 059°60'0 0.0
2017-Sep-21 13:29S 03°09' W 059°60'0 0.0
2017-Sep-21 12:59S 03°09' W 059°60'0 0.0
2017-Sep-21 12:29S 03°09' W 059°60'0 0.0
2017-Sep-21 11:59S 03°09' W 059°60'0 0.0
2017-Sep-21 11:29S 03°09' W 059°60'0 0.0
2017-Sep-21 10:49S 03°09' W 059°60'0 0.0
2017-Sep-21 10:29S 03°09' W 059°60'0 0.0
2017-Sep-21 09:59S 03°09' W 059°60'0 0.0
2017-Sep-21 09:29S 03°09' W 059°60'0 0.0
2017-Sep-21 08:59S 03°09' W 059°60'0 0.0
2017-Sep-21 08:29S 03°09' W 059°60'0 0.0
2017-Sep-21 07:59S 03°09' W 059°60'0 0.0
2017-Sep-21 07:25S 03°09' W 059°60'0 0.0
2017-Sep-21 06:47S 03°09' W 059°60'0 0.0
2017-Sep-21 06:26S 03°09' W 059°60'0 0.0
2017-Sep-21 05:38S 03°09' W 059°60'0 0.0
2017-Sep-21 05:23S 03°09' W 059°60'0 0.0
2017-Sep-21 04:59S 03°09' W 059°60'0 0.0
2017-Sep-21 04:23S 03°09' W 059°60'0 0.0
2017-Sep-21 03:59S 03°09' W 059°60'0 0.0
2017-Sep-21 03:11S 03°09' W 059°60'0 0.0
2017-Sep-21 02:05S 03°09' W 059°60'0 0.1
2017-Sep-21 01:59S 03°09' W 059°60'0 0.0
2017-Sep-21 01:23S 03°09' W 059°60'0 0.0
2017-Sep-21 00:59S 03°09' W 059°60'0 0.0
2017-Sep-21 00:11S 03°09' W 059°60'0 0.0
2017-Sep-20 23:56S 03°09' W 059°60'0 0.0
2017-Sep-20 23:29S 03°09' W 059°60'0 0.0
2017-Sep-20 22:56S 03°09' W 059°60'0 0.0
2017-Sep-20 22:11S 03°09' W 059°60'0 0.0
2017-Sep-20 20:53S 03°09' W 059°60'0 0.0
2017-Sep-20 20:08S 03°09' W 059°60'0 0.0
2017-Sep-20 19:59S 03°09' W 059°60'0 0.0
2017-Sep-20 19:17S 03°09' W 059°60'0 0.0
2017-Sep-20 18:47S 03°09' W 059°60'0 0.0
2017-Sep-20 18:20S 03°09' W 059°60'0 0.0
2017-Sep-20 17:57S 03°09' W 059°60'0 0.0
2017-Sep-20 17:30S 03°09' W 059°60'0 0.0
2017-Sep-20 16:57S 03°09' W 059°60'0 0.0
2017-Sep-20 16:24S 03°09' W 059°60'0 0.0
2017-Sep-20 16:00S 03°09' W 059°60'0 0.0
2017-Sep-20 15:27S 03°09' W 059°60'0 0.0
2017-Sep-20 15:00S 03°09' W 059°60'0 0.0
2017-Sep-20 14:00S 03°09' W 059°60'0 0.0
2017-Sep-20 13:30S 03°09' W 059°60'0 0.0
2017-Sep-20 13:00S 03°09' W 059°60'0 0.0
2017-Sep-20 12:21S 03°09' W 059°60'0 0.0
2017-Sep-20 11:48S 03°09' W 059°60'0 0.0
2017-Sep-20 11:30S 03°09' W 059°60'0 0.0
2017-Sep-20 11:00S 03°09' W 059°60'0 0.0
2017-Sep-20 10:24S 03°09' W 059°60'0 0.0
2017-Sep-20 09:03S 03°09' W 059°60'0 0.0
2017-Sep-20 08:54S 03°09' W 059°60'0 0.0
2017-Sep-20 08:21S 03°09' W 059°60'0 0.0
2017-Sep-20 07:54S 03°09' W 059°60'0 0.0
2017-Sep-20 07:23S 03°09' W 059°60'0 0.0
2017-Sep-20 06:53S 03°09' W 059°60'0 0.0
2017-Sep-20 06:29S 03°09' W 059°60'0 0.0
2017-Sep-20 05:23S 03°09' W 059°60'0 0.0
2017-Sep-20 04:58S 03°09' W 059°60'0 0.0
2017-Sep-20 04:22S 03°09' W 059°60'0 0.0
2017-Sep-20 03:58S 03°09' W 059°60'0 0.0
2017-Sep-20 03:22S 03°09' W 059°60'0 0.0
2017-Sep-20 02:58S 03°09' W 059°60'0 0.0
2017-Sep-20 02:19S 03°09' W 059°60'0 0.1
2017-Sep-20 02:00S 03°09' W 059°60'0 0.7
2017-Sep-20 01:30S 03°10' W 059°60'2 4.2
2017-Sep-20 01:00S 03°10' W 059°58'5 9.9
2017-Sep-20 00:30S 03°07' W 059°54'54311.0
2017-Sep-17 23:09S 00°14' W 051°19'214.1
2017-Sep-17 23:00S 00°13' W 051°18'713.7
2017-Sep-17 22:30S 00°08' W 051°12'713.5
2017-Sep-17 22:00S 00°05' W 051°07'1 1.5
2017-Sep-17 21:28S 00°04' W 051°06'0 0.1
2017-Sep-17 20:58S 00°04' W 051°06'0 0.1
2017-Sep-17 20:28S 00°04' W 051°06'0 0.0
2017-Sep-17 19:52S 00°04' W 051°06'0 0.0
2017-Sep-17 19:28S 00°04' W 051°06'0 0.3
2017-Sep-17 18:58S 00°04' W 051°06'0 0.1
2017-Sep-17 18:28S 00°04' W 051°06'0 0.3
2017-Sep-17 18:00S 00°04' W 051°06'3 6.7
2017-Sep-17 17:30S 00°02' W 051°04'714.2
2017-Sep-17 17:00N 00°04' W 050°60'815.3
2017-Sep-17 16:30N 00°09' W 050°54'816.0
2017-Sep-17 16:00N 00°11' W 050°46'  
Track history (hours):
 
Tides and Currents Weather Stations Pressure Air Temp Water Temp Dewpoint Dewpoint Depression Visibility Wind Speed Wind Dir Waves Ship Positions

Paradero

Last reported at 2017-Sep-21 15:15 UTC. Time now 2017-Nov-24 15:00 UTC.
Position S 03°07' W 059°53'.
Warning: this ship's position is months out of date.

Length 140 m; draft 4.7 m.

Type: Cargo ship. MMSI: 339300320.

Date/timePositionNaut miles runAvg speedWind from/ knotsBaromVisibWave heightAir tempDewpointWater temp
2017-Sep-21 15:15S 03°07' W 059°53'412.0
2017-Sep-21 14:54S 03°09' W 059°57'3 7.6
2017-Sep-21 14:30S 03°10' W 059°60'0 0.5
2017-Sep-21 13:55S 03°09' W 059°60'0 0.0
2017-Sep-21 13:29S 03°09' W 059°60'0 0.0
2017-Sep-21 12:59S 03°09' W 059°60'0 0.0
2017-Sep-21 12:29S 03°09' W 059°60'0 0.0
2017-Sep-21 11:59S 03°09' W 059°60'0 0.0
2017-Sep-21 11:29S 03°09' W 059°60'0 0.0
2017-Sep-21 10:49S 03°09' W 059°60'0 0.0
2017-Sep-21 10:29S 03°09' W 059°60'0 0.0
2017-Sep-21 09:59S 03°09' W 059°60'0 0.0
2017-Sep-21 09:29S 03°09' W 059°60'0 0.0
2017-Sep-21 08:59S 03°09' W 059°60'0 0.0
2017-Sep-21 08:29S 03°09' W 059°60'0 0.0
2017-Sep-21 07:59S 03°09' W 059°60'0 0.0
2017-Sep-21 07:25S 03°09' W 059°60'0 0.0
2017-Sep-21 06:47S 03°09' W 059°60'0 0.0
2017-Sep-21 06:26S 03°09' W 059°60'0 0.0
2017-Sep-21 05:38S 03°09' W 059°60'0 0.0
2017-Sep-21 05:23S 03°09' W 059°60'0 0.0
2017-Sep-21 04:59S 03°09' W 059°60'0 0.0
2017-Sep-21 04:23S 03°09' W 059°60'0 0.0
2017-Sep-21 03:59S 03°09' W 059°60'0 0.0
2017-Sep-21 03:11S 03°09' W 059°60'0 0.0
2017-Sep-21 02:05S 03°09' W 059°60'0 0.1
2017-Sep-21 01:59S 03°09' W 059°60'0 0.0
2017-Sep-21 01:23S 03°09' W 059°60'0 0.0
2017-Sep-21 00:59S 03°09' W 059°60'0 0.0
2017-Sep-21 00:11S 03°09' W 059°60'0 0.0
2017-Sep-20 23:56S 03°09' W 059°60'0 0.0
2017-Sep-20 23:29S 03°09' W 059°60'0 0.0
2017-Sep-20 22:56S 03°09' W 059°60'0 0.0
2017-Sep-20 22:11S 03°09' W 059°60'0 0.0
2017-Sep-20 20:53S 03°09' W 059°60'0 0.0
2017-Sep-20 20:08S 03°09' W 059°60'0 0.0
2017-Sep-20 19:59S 03°09' W 059°60'0 0.0
2017-Sep-20 19:17S 03°09' W 059°60'0 0.0
2017-Sep-20 18:47S 03°09' W 059°60'0 0.0
2017-Sep-20 18:20S 03°09' W 059°60'0 0.0
2017-Sep-20 17:57S 03°09' W 059°60'0 0.0
2017-Sep-20 17:30S 03°09' W 059°60'0 0.0
2017-Sep-20 16:57S 03°09' W 059°60'0 0.0
2017-Sep-20 16:24S 03°09' W 059°60'0 0.0
2017-Sep-20 16:00S 03°09' W 059°60'0 0.0
2017-Sep-20 15:27S 03°09' W 059°60'0 0.0
2017-Sep-20 15:00S 03°09' W 059°60'0 0.0
2017-Sep-20 14:00S 03°09' W 059°60'0 0.0
2017-Sep-20 13:30S 03°09' W 059°60'0 0.0
2017-Sep-20 13:00S 03°09' W 059°60'0 0.0
2017-Sep-20 12:21S 03°09' W 059°60'0 0.0
2017-Sep-20 11:48S 03°09' W 059°60'0 0.0
2017-Sep-20 11:30S 03°09' W 059°60'0 0.0
2017-Sep-20 11:00S 03°09' W 059°60'0 0.0
2017-Sep-20 10:24S 03°09' W 059°60'0 0.0
2017-Sep-20 09:03S 03°09' W 059°60'0 0.0
2017-Sep-20 08:54S 03°09' W 059°60'0 0.0
2017-Sep-20 08:21S 03°09' W 059°60'0 0.0
2017-Sep-20 07:54S 03°09' W 059°60'0 0.0
2017-Sep-20 07:23S 03°09' W 059°60'0 0.0
2017-Sep-20 06:53S 03°09' W 059°60'0 0.0
2017-Sep-20 06:29S 03°09' W 059°60'0 0.0
2017-Sep-20 05:23S 03°09' W 059°60'0 0.0
2017-Sep-20 04:58S 03°09' W 059°60'0 0.0
2017-Sep-20 04:22S 03°09' W 059°60'0 0.0
2017-Sep-20 03:58S 03°09' W 059°60'0 0.0
2017-Sep-20 03:22S 03°09' W 059°60'0 0.0
2017-Sep-20 02:58S 03°09' W 059°60'0 0.0
2017-Sep-20 02:19S 03°09' W 059°60'0 0.1
2017-Sep-20 02:00S 03°09' W 059°60'0 0.7
2017-Sep-20 01:30S 03°10' W 059°60'2 4.2
2017-Sep-20 01:00S 03°10' W 059°58'5 9.9
2017-Sep-20 00:30S 03°07' W 059°54'54311.0
2017-Sep-17 23:09S 00°14' W 051°19'214.1
2017-Sep-17 23:00S 00°13' W 051°18'713.7
2017-Sep-17 22:30S 00°08' W 051°12'713.5
2017-Sep-17 22:00S 00°05' W 051°07'1 1.5
2017-Sep-17 21:28S 00°04' W 051°06'0 0.1
2017-Sep-17 20:58S 00°04' W 051°06'0 0.1
2017-Sep-17 20:28S 00°04' W 051°06'0 0.0
2017-Sep-17 19:52S 00°04' W 051°06'0 0.0
2017-Sep-17 19:28S 00°04' W 051°06'0 0.3
2017-Sep-17 18:58S 00°04' W 051°06'0 0.1
2017-Sep-17 18:28S 00°04' W 051°06'0 0.3
2017-Sep-17 18:00S 00°04' W 051°06'3 6.7
2017-Sep-17 17:30S 00°02' W 051°04'714.2
2017-Sep-17 17:00N 00°04' W 050°60'815.3
2017-Sep-17 16:30N 00°09' W 050°54'816.0
2017-Sep-17 16:00N 00°11' W 050°46'  

Dump ship's entire track history